createdAt,value
2022-12-31T00:01:27.684Z,99057.75
2022-12-31T00:03:56.139Z,99048.94
2022-12-31T00:06:27.693Z,99046.31
2022-12-31T00:08:57.527Z,99043.63
2022-12-31T00:11:26.142Z,99041.00
2022-12-31T00:13:54.092Z,99039.19
2022-12-31T00:16:24.452Z,99045.16
2022-12-31T00:18:54.657Z,99053.84
2022-12-31T00:21:22.754Z,99059.09
2022-12-31T00:23:49.996Z,99062.56
2022-12-31T00:26:21.077Z,99048.47
2022-12-31T00:28:48.729Z,99048.56
2022-12-31T00:31:30.551Z,99063.53
2022-12-31T00:33:58.611Z,99055.69
2022-12-31T00:36:34.891Z,99054.94
2022-12-31T00:39:03.398Z,99055.00
2022-12-31T00:41:30.427Z,99054.06
2022-12-31T00:43:58.104Z,99045.34
2022-12-31T00:46:25.560Z,99033.84
2022-12-31T00:48:53.121Z,99032.81
2022-12-31T00:51:22.545Z,99048.44
2022-12-31T00:53:50.335Z,99033.50
2022-12-31T00:56:22.979Z,99028.09
2022-12-31T00:58:51.242Z,99019.31
2022-12-31T01:01:24.573Z,99018.41
2022-12-31T01:03:53.994Z,99023.59
2022-12-31T01:06:21.936Z,99022.00
2022-12-31T01:08:50.531Z,99008.97
2022-12-31T01:11:24.529Z,99010.03
2022-12-31T01:13:54.420Z,99010.19
2022-12-31T01:16:25.042Z,99015.44
2022-12-31T01:18:52.644Z,99022.53
2022-12-31T01:21:20.616Z,99014.69
2022-12-31T01:23:48.153Z,99024.31
2022-12-31T01:26:17.344Z,99018.91
2022-12-31T01:28:44.907Z,99014.56
2022-12-31T01:31:15.122Z,99003.16
2022-12-31T01:33:42.801Z,99022.31
2022-12-31T01:36:25.861Z,99012.75
2022-12-31T01:38:54.616Z,99009.97
2022-12-31T01:41:24.940Z,99004.81
2022-12-31T01:43:58.714Z,99017.06
2022-12-31T01:46:30.808Z,99004.72
2022-12-31T01:49:03.424Z,99008.38
2022-12-31T01:51:33.885Z,99004.78
2022-12-31T01:54:04.872Z,99006.50
2022-12-31T01:56:32.871Z,99003.66
2022-12-31T01:59:00.351Z,99000.03
2022-12-31T02:01:32.708Z,99005.09
2022-12-31T02:04:08.074Z,99015.31
2022-12-31T02:06:49.028Z,98999.22
2022-12-31T02:09:16.374Z,99019.22
2022-12-31T02:11:43.453Z,99006.94
2022-12-31T02:14:19.086Z,99011.34
2022-12-31T02:16:52.529Z,98996.44
2022-12-31T02:19:22.276Z,98997.31
2022-12-31T02:22:01.136Z,98991.09
2022-12-31T02:24:37.108Z,98985.13
2022-12-31T02:27:23.955Z,98973.63
2022-12-31T02:30:14.323Z,98986.00
2022-12-31T02:33:10.159Z,98974.44
2022-12-31T02:35:51.609Z,98965.75
2022-12-31T02:38:26.486Z,98970.22
2022-12-31T02:40:55.013Z,98981.56
2022-12-31T02:43:21.919Z,98965.88
2022-12-31T02:45:55.548Z,98971.13
2022-12-31T02:48:31.250Z,98977.19
2022-12-31T02:51:18.878Z,98972.94
2022-12-31T02:53:51.759Z,98978.25
2022-12-31T02:56:36.492Z,98974.81
2022-12-31T02:59:32.387Z,98972.19
2022-12-31T03:02:22.262Z,98958.25
2022-12-31T03:04:54.630Z,98959.09
2022-12-31T03:07:41.398Z,98944.31
2022-12-31T03:10:09.128Z,98962.69
2022-12-31T03:12:49.018Z,98958.38
2022-12-31T03:15:35.981Z,98964.75
2022-12-31T03:18:16.035Z,98968.47
2022-12-31T03:21:01.351Z,98970.31
2022-12-31T03:23:32.195Z,98969.53
2022-12-31T03:26:00.641Z,98980.09
2022-12-31T03:28:30.277Z,98974.69
2022-12-31T03:31:00.221Z,98958.94
2022-12-31T03:33:31.908Z,98960.59
2022-12-31T03:35:58.923Z,98965.84
2022-12-31T03:38:26.084Z,98963.94
2022-12-31T03:40:53.252Z,98950.53
2022-12-31T03:43:20.856Z,98949.41
2022-12-31T03:45:52.023Z,98949.16
2022-12-31T03:48:21.660Z,98962.06
2022-12-31T03:50:48.508Z,98958.53
2022-12-31T03:53:15.711Z,98961.03
2022-12-31T03:55:42.661Z,98967.00
2022-12-31T03:58:09.825Z,98943.88
2022-12-31T04:00:36.802Z,98952.19
2022-12-31T04:03:04.087Z,98972.91
2022-12-31T04:05:31.403Z,98934.34
2022-12-31T04:07:58.709Z,98951.78
2022-12-31T04:10:25.657Z,98960.41
2022-12-31T04:12:52.851Z,98937.53
2022-12-31T04:15:21.900Z,98958.53
2022-12-31T04:17:49.277Z,98948.84
2022-12-31T04:20:16.693Z,98943.28
2022-12-31T04:22:44.397Z,98926.72
2022-12-31T04:25:12.047Z,98933.53
2022-12-31T04:27:41.508Z,98934.47
2022-12-31T04:30:08.970Z,98926.50
2022-12-31T04:32:36.220Z,98936.97
2022-12-31T04:35:03.199Z,98944.00
2022-12-31T04:37:30.396Z,98949.13
2022-12-31T04:40:03.539Z,98957.06
2022-12-31T04:42:32.872Z,98950.16
2022-12-31T04:44:59.730Z,98951.94
2022-12-31T04:47:26.945Z,98974.50
2022-12-31T04:49:53.821Z,98950.91
2022-12-31T04:52:21.084Z,98954.22
2022-12-31T04:54:47.985Z,98949.56
2022-12-31T04:57:15.196Z,98951.22
2022-12-31T04:59:42.092Z,98944.13
2022-12-31T05:02:09.768Z,98946.72
2022-12-31T05:04:36.744Z,98932.59
2022-12-31T05:07:04.096Z,98927.28
2022-12-31T05:09:31.208Z,98951.75
2022-12-31T05:11:58.491Z,98926.22
2022-12-31T05:14:25.507Z,98929.63
2022-12-31T05:16:52.830Z,98938.41
2022-12-31T05:19:19.741Z,98941.75
2022-12-31T05:22:06.822Z,98922.38
2022-12-31T05:24:33.684Z,98932.03
2022-12-31T05:27:00.789Z,98921.47
2022-12-31T05:29:27.804Z,98930.22
2022-12-31T05:31:55.016Z,98940.69
2022-12-31T05:34:21.891Z,98949.56
2022-12-31T05:36:49.040Z,98940.91
2022-12-31T05:39:16.028Z,98956.84
2022-12-31T05:41:43.223Z,98962.81
2022-12-31T05:44:11.036Z,98952.41
2022-12-31T05:46:38.249Z,98962.09
2022-12-31T05:49:05.122Z,98965.66
2022-12-31T05:51:32.431Z,98976.13
2022-12-31T05:53:59.378Z,98952.47
2022-12-31T05:56:26.624Z,98940.13
2022-12-31T05:58:53.580Z,98942.75
2022-12-31T06:01:20.766Z,98955.84
2022-12-31T06:03:48.180Z,98970.84
2022-12-31T06:06:15.416Z,98969.66
2022-12-31T06:08:42.353Z,98982.81
2022-12-31T06:11:09.556Z,98985.50
2022-12-31T06:13:36.895Z,98974.97
2022-12-31T06:16:08.218Z,98961.72
2022-12-31T06:18:35.335Z,98974.88
2022-12-31T06:21:02.505Z,98979.34
2022-12-31T06:23:29.567Z,99021.34
2022-12-31T06:25:56.736Z,98956.34
2022-12-31T06:28:23.652Z,98974.81
2022-12-31T06:30:50.901Z,98976.47
2022-12-31T06:33:17.820Z,98980.75
2022-12-31T06:35:45.037Z,98967.69
2022-12-31T06:38:11.877Z,98983.25
2022-12-31T06:40:39.138Z,99004.50
2022-12-31T06:43:06.029Z,98997.44
2022-12-31T06:45:33.276Z,99005.41
2022-12-31T06:48:00.190Z,99007.16
2022-12-31T06:50:27.598Z,98999.19
2022-12-31T06:52:54.536Z,99016.63
2022-12-31T06:55:21.937Z,98992.19
2022-12-31T06:57:49.208Z,98988.69
2022-12-31T07:00:17.000Z,98988.56
2022-12-31T07:03:01.885Z,99006.19
2022-12-31T07:05:44.431Z,99005.28
2022-12-31T07:08:45.078Z,98975.34
2022-12-31T07:11:26.113Z,98991.94
2022-12-31T07:14:26.882Z,98994.31
2022-12-31T07:17:34.106Z,99005.63
2022-12-31T07:20:12.142Z,99028.34
2022-12-31T07:22:39.562Z,99020.25
2022-12-31T07:25:07.439Z,99023.69
2022-12-31T07:27:42.161Z,99032.38
2022-12-31T07:30:17.146Z,99036.50
2022-12-31T07:33:06.117Z,99015.97
2022-12-31T07:35:36.155Z,99031.78
2022-12-31T07:38:18.367Z,99026.41
2022-12-31T07:40:54.005Z,99034.91
2022-12-31T07:43:36.277Z,99033.03
2022-12-31T07:46:33.506Z,99030.34
2022-12-31T07:49:01.155Z,99032.78
2022-12-31T07:51:28.404Z,99041.03
2022-12-31T07:53:55.618Z,99039.63
2022-12-31T07:56:22.625Z,99055.47
2022-12-31T07:59:02.654Z,99060.47
2022-12-31T08:01:47.178Z,99056.13
2022-12-31T08:04:35.963Z,99056.72
2022-12-31T08:07:23.519Z,99053.53
2022-12-31T08:10:17.965Z,99053.00
2022-12-31T08:12:48.556Z,99038.28
2022-12-31T08:15:19.071Z,99063.13
2022-12-31T08:17:46.416Z,99060.59
2022-12-31T08:20:16.071Z,99049.03
2022-12-31T08:22:46.003Z,99062.09
2022-12-31T08:25:43.538Z,99061.94
2022-12-31T08:28:41.880Z,99065.84
2022-12-31T08:31:17.103Z,99085.38
2022-12-31T08:34:05.964Z,99084.72
2022-12-31T08:36:39.238Z,99078.13
2022-12-31T08:39:32.961Z,99074.41
2022-12-31T08:42:04.006Z,99084.88
2022-12-31T08:44:58.658Z,99089.53
2022-12-31T08:47:39.707Z,99089.75
2022-12-31T08:50:12.988Z,99087.34
2022-12-31T08:52:40.518Z,99078.78
2022-12-31T08:55:07.992Z,99075.31
2022-12-31T08:57:41.007Z,99068.16
2022-12-31T09:00:13.870Z,99075.44
2022-12-31T09:02:59.823Z,99070.00
2022-12-31T09:05:58.880Z,99068.50
2022-12-31T09:08:35.998Z,99065.31
2022-12-31T09:11:43.367Z,99054.75
2022-12-31T09:14:19.682Z,99063.00
2022-12-31T09:17:09.073Z,99054.25
2022-12-31T09:19:36.454Z,99034.66
2022-12-31T09:22:03.703Z,99040.09
2022-12-31T09:24:31.127Z,99035.22
2022-12-31T09:27:28.083Z,99050.97
2022-12-31T09:30:09.980Z,99024.00
2022-12-31T09:32:49.022Z,99038.06
2022-12-31T09:35:29.861Z,99054.00
2022-12-31T09:38:16.770Z,99061.84
2022-12-31T09:40:55.979Z,99052.41
2022-12-31T09:43:31.951Z,99039.63
2022-12-31T09:46:27.065Z,99055.38
2022-12-31T09:49:11.823Z,99066.69
2022-12-31T09:51:59.313Z,99060.09
2022-12-31T09:54:40.284Z,99048.44
2022-12-31T09:57:38.895Z,99074.91
2022-12-31T10:00:05.992Z,99060.34
2022-12-31T10:02:58.630Z,99065.31
2022-12-31T10:05:47.023Z,99041.06
2022-12-31T10:08:48.047Z,99041.31
2022-12-31T10:11:45.763Z,99045.44
2022-12-31T10:14:55.626Z,99034.19
2022-12-31T10:17:53.392Z,99009.00
2022-12-31T10:20:45.579Z,99024.63
2022-12-31T10:23:20.871Z,99017.78
2022-12-31T10:26:25.397Z,99030.00
2022-12-31T10:29:06.258Z,99035.13
2022-12-31T10:32:11.194Z,99025.22
2022-12-31T10:34:46.898Z,99038.69
2022-12-31T10:37:17.732Z,99050.66
2022-12-31T10:40:10.475Z,99004.53
2022-12-31T10:42:55.731Z,99044.41
2022-12-31T10:45:25.554Z,99039.25
2022-12-31T10:48:30.359Z,99042.66
2022-12-31T10:50:59.967Z,99035.50
2022-12-31T10:53:52.248Z,99040.09
2022-12-31T10:56:42.401Z,99051.47
2022-12-31T10:59:37.190Z,99048.78
2022-12-31T11:02:57.816Z,99048.97
2022-12-31T11:05:46.028Z,99038.19
2022-12-31T11:08:53.912Z,99050.69
2022-12-31T11:11:31.697Z,99050.97
2022-12-31T11:14:16.962Z,99058.09
2022-12-31T11:16:47.135Z,99041.47
2022-12-31T11:19:52.501Z,99034.00
2022-12-31T11:22:44.677Z,99055.97
2022-12-31T11:25:24.447Z,99038.91
2022-12-31T11:28:03.824Z,99035.25
2022-12-31T11:31:13.053Z,99037.00
2022-12-31T11:34:22.740Z,99032.63
2022-12-31T11:37:04.922Z,99041.50
2022-12-31T11:39:49.844Z,99011.84
2022-12-31T11:42:27.132Z,99020.47
2022-12-31T11:45:15.735Z,99004.19
2022-12-31T11:48:20.147Z,99017.00
2022-12-31T11:50:39.343Z,99026.28
2022-12-31T11:53:16.895Z,99023.78
2022-12-31T11:56:02.646Z,99017.09
2022-12-31T11:58:30.121Z,99010.16
2022-12-31T12:01:04.929Z,99026.50
2022-12-31T12:03:32.855Z,99008.34
2022-12-31T12:06:00.304Z,98997.66
2022-12-31T12:08:31.537Z,99010.28
2022-12-31T12:11:24.041Z,99006.31
2022-12-31T12:13:51.291Z,99007.72
2022-12-31T12:16:21.288Z,98995.28
2022-12-31T12:19:07.453Z,99020.63
2022-12-31T12:21:34.944Z,99005.63
2022-12-31T12:24:01.780Z,99018.19
2022-12-31T12:26:38.407Z,99019.25
2022-12-31T12:29:11.589Z,99007.59
2022-12-31T12:31:39.294Z,99016.44
2022-12-31T12:34:23.463Z,99013.03
2022-12-31T12:36:50.655Z,99022.38
2022-12-31T12:39:37.778Z,99022.38
2022-12-31T12:42:08.756Z,99026.53
2022-12-31T12:44:35.975Z,99029.44
2022-12-31T12:47:05.938Z,99001.81
2022-12-31T12:49:46.011Z,99009.16
2022-12-31T12:52:30.499Z,99026.47
2022-12-31T12:55:09.193Z,99028.38
2022-12-31T12:57:39.351Z,99016.94
2022-12-31T13:00:21.126Z,99034.59
2022-12-31T13:03:07.577Z,99045.47
2022-12-31T13:06:06.990Z,99023.69
2022-12-31T13:08:59.241Z,99041.22
2022-12-31T13:11:49.791Z,99028.28
2022-12-31T13:14:34.627Z,99011.47
2022-12-31T13:17:24.506Z,99045.72
2022-12-31T13:20:07.297Z,99024.75
2022-12-31T13:23:03.382Z,99036.19
2022-12-31T13:26:02.848Z,99031.47
2022-12-31T13:28:30.978Z,99077.69
2022-12-31T13:31:07.605Z,99052.22
2022-12-31T13:33:49.739Z,99045.31
2022-12-31T13:36:20.428Z,99069.03
2022-12-31T13:38:54.554Z,99047.16
2022-12-31T13:41:27.856Z,99038.44
2022-12-31T13:44:15.723Z,99066.81
2022-12-31T13:47:08.824Z,99040.69
2022-12-31T13:49:44.159Z,99057.56
2022-12-31T13:52:36.052Z,99043.66
2022-12-31T13:55:17.568Z,99041.28
2022-12-31T13:58:03.703Z,99034.31
2022-12-31T14:00:38.083Z,99046.75
2022-12-31T14:03:15.367Z,99061.81
2022-12-31T14:05:53.873Z,99054.00
2022-12-31T14:08:21.195Z,99049.63
2022-12-31T14:11:03.273Z,99046.34
2022-12-31T14:14:12.399Z,99046.47
2022-12-31T14:16:48.686Z,99038.91
2022-12-31T14:19:41.207Z,99027.59
2022-12-31T14:22:44.439Z,99043.34
2022-12-31T14:25:20.926Z,99043.41
2022-12-31T14:27:51.005Z,99037.47
2022-12-31T14:30:20.427Z,99051.63
2022-12-31T14:33:06.032Z,99053.50
2022-12-31T14:36:05.217Z,99057.91
2022-12-31T14:39:17.357Z,99057.22
2022-12-31T14:42:03.075Z,99051.13
2022-12-31T14:45:01.454Z,99053.06
2022-12-31T14:47:46.669Z,99044.50
2022-12-31T14:50:21.590Z,99060.31
2022-12-31T14:52:53.451Z,99048.97
2022-12-31T14:55:24.181Z,99040.97
2022-12-31T14:58:26.482Z,99046.25
2022-12-31T15:00:40.149Z,99055.97
2022-12-31T15:03:37.931Z,99045.72
2022-12-31T15:06:23.388Z,99058.16
2022-12-31T15:09:15.081Z,99051.91
2022-12-31T15:12:00.034Z,99055.53
2022-12-31T15:14:37.841Z,99053.72
2022-12-31T15:17:40.394Z,99052.09
2022-12-31T15:20:33.664Z,99051.34
2022-12-31T15:23:00.803Z,99059.16
2022-12-31T15:25:40.102Z,99054.66
2022-12-31T15:28:30.519Z,99074.84
2022-12-31T15:31:21.077Z,99074.84
2022-12-31T15:33:58.535Z,99079.22
2022-12-31T15:36:29.419Z,99075.84
2022-12-31T15:39:10.110Z,99091.59
2022-12-31T15:42:10.277Z,99081.72
2022-12-31T15:44:51.744Z,99070.34
2022-12-31T15:47:34.400Z,99074.63
2022-12-31T15:50:08.092Z,99064.06
2022-12-31T15:52:54.193Z,99054.41
2022-12-31T15:55:26.861Z,99065.00
2022-12-31T15:57:58.586Z,99072.81
2022-12-31T16:00:30.142Z,99066.56
2022-12-31T16:02:57.892Z,99071.94
2022-12-31T16:05:27.335Z,99071.69
2022-12-31T16:07:59.527Z,99059.50
2022-12-31T16:10:31.798Z,99063.69
2022-12-31T16:12:59.928Z,99069.94
2022-12-31T16:15:30.656Z,99067.41
2022-12-31T16:18:04.653Z,99070.97
2022-12-31T16:20:33.799Z,99085.13
2022-12-31T16:23:03.320Z,99085.97
2022-12-31T16:25:32.654Z,99085.91
2022-12-31T16:28:03.272Z,99076.00
2022-12-31T16:30:36.012Z,99068.88
2022-12-31T16:33:06.454Z,99068.25
2022-12-31T16:35:39.296Z,99051.31
2022-12-31T16:38:12.584Z,99064.31
2022-12-31T16:40:45.093Z,99071.22
2022-12-31T16:43:38.158Z,99071.16
2022-12-31T16:46:27.519Z,99077.81
2022-12-31T16:48:56.301Z,99068.59
2022-12-31T16:51:29.949Z,99085.00
2022-12-31T16:53:58.157Z,99075.78
2022-12-31T16:56:45.517Z,99072.97
2022-12-31T16:59:23.879Z,99098.22
2022-12-31T17:01:52.436Z,99099.81
2022-12-31T17:04:22.214Z,99095.44
2022-12-31T17:06:49.183Z,99091.97
2022-12-31T17:09:31.171Z,99092.50
2022-12-31T17:12:14.614Z,99086.44
2022-12-31T17:14:50.825Z,99099.34
2022-12-31T17:17:30.114Z,99087.84
2022-12-31T17:19:58.863Z,99108.63
2022-12-31T17:22:35.750Z,99082.28
2022-12-31T17:25:06.820Z,99078.75
2022-12-31T17:27:35.982Z,99065.56
2022-12-31T17:30:23.156Z,99096.50
2022-12-31T17:32:51.821Z,99079.97
2022-12-31T17:35:28.270Z,99091.31
2022-12-31T17:37:55.431Z,99093.97
2022-12-31T17:40:54.422Z,99093.88
2022-12-31T17:43:23.689Z,99098.88
2022-12-31T17:45:52.970Z,99104.09
2022-12-31T17:48:20.607Z,99110.44
2022-12-31T17:50:59.017Z,99109.56
2022-12-31T17:53:26.127Z,99123.34
2022-12-31T17:55:56.908Z,99091.56
2022-12-31T17:58:37.559Z,99124.06
2022-12-31T18:01:09.435Z,99103.91
2022-12-31T18:03:36.432Z,99123.22
2022-12-31T18:06:05.494Z,99134.91
2022-12-31T18:08:32.455Z,99124.53
2022-12-31T18:10:59.815Z,99119.19
2022-12-31T18:13:27.738Z,99124.47
2022-12-31T18:15:55.514Z,99123.41
2022-12-31T18:18:32.810Z,99117.47
2022-12-31T18:21:06.834Z,99118.38
2022-12-31T18:23:46.347Z,99104.31
2022-12-31T18:26:18.297Z,99114.00
2022-12-31T18:28:45.536Z,99108.72
2022-12-31T18:31:15.889Z,99108.44
2022-12-31T18:33:42.985Z,99093.56
2022-12-31T18:36:15.682Z,99101.72
2022-12-31T18:38:42.658Z,99106.00
2022-12-31T18:41:19.498Z,99103.16
2022-12-31T18:43:46.531Z,99103.84
2022-12-31T18:46:17.125Z,99099.50
2022-12-31T18:48:44.677Z,99107.34
2022-12-31T18:51:16.075Z,99110.97
2022-12-31T18:53:43.130Z,99112.88
2022-12-31T18:56:15.841Z,99099.75
2022-12-31T18:58:43.253Z,99098.19
2022-12-31T19:01:28.186Z,99084.25
2022-12-31T19:04:00.290Z,99089.72
2022-12-31T19:06:27.894Z,99099.28
2022-12-31T19:08:55.071Z,99109.97
2022-12-31T19:11:23.180Z,99113.31
2022-12-31T19:13:50.123Z,99115.09
2022-12-31T19:16:18.122Z,99110.75
2022-12-31T19:18:47.454Z,99093.81
2022-12-31T19:21:20.151Z,99108.78
2022-12-31T19:23:47.375Z,99111.41
2022-12-31T19:26:22.810Z,99100.94
2022-12-31T19:28:50.906Z,99113.19
2022-12-31T19:31:18.242Z,99104.31
2022-12-31T19:33:45.354Z,99108.63
2022-12-31T19:36:18.286Z,99105.91
2022-12-31T19:38:45.660Z,99094.31
2022-12-31T19:41:18.744Z,99116.31
2022-12-31T19:43:46.809Z,99119.59
2022-12-31T19:46:16.330Z,99117.69
2022-12-31T19:48:43.499Z,99125.75
2022-12-31T19:51:19.659Z,99117.56
2022-12-31T19:53:47.969Z,99131.63
2022-12-31T19:56:20.402Z,99124.66
2022-12-31T19:58:47.768Z,99127.06
2022-12-31T20:01:25.635Z,99127.06
2022-12-31T20:03:52.525Z,99134.78
2022-12-31T20:06:20.004Z,99137.34
2022-12-31T20:08:46.944Z,99128.50
2022-12-31T20:11:17.471Z,99128.59
2022-12-31T20:13:45.792Z,99129.38
2022-12-31T20:16:15.674Z,99132.03
2022-12-31T20:18:43.986Z,99117.84
2022-12-31T20:21:18.101Z,99129.28
2022-12-31T20:23:45.741Z,99134.66
2022-12-31T20:26:13.441Z,99125.53
2022-12-31T20:28:40.857Z,99139.66
2022-12-31T20:31:13.094Z,99142.22
2022-12-31T20:33:40.263Z,99134.31
2022-12-31T20:36:10.014Z,99139.72
2022-12-31T20:38:37.332Z,99149.34
2022-12-31T20:41:04.501Z,99135.75
2022-12-31T20:43:35.576Z,99138.47
2022-12-31T20:46:14.123Z,99143.16
2022-12-31T20:48:42.338Z,99151.97
2022-12-31T20:51:09.747Z,99158.78
2022-12-31T20:53:36.653Z,99167.34
2022-12-31T20:56:08.705Z,99174.47
2022-12-31T20:58:36.252Z,99161.28
2022-12-31T21:01:07.196Z,99173.69
2022-12-31T21:04:04.912Z,99169.16
2022-12-31T21:06:26.935Z,99171.00
2022-12-31T21:08:54.951Z,99179.81
2022-12-31T21:11:45.511Z,99179.81
2022-12-31T21:14:12.620Z,99175.59
2022-12-31T21:16:40.039Z,99186.13
2022-12-31T21:19:06.972Z,99188.84
2022-12-31T21:21:34.390Z,99176.53
2022-12-31T21:24:01.452Z,99191.59
2022-12-31T21:26:29.364Z,99187.13
2022-12-31T21:28:56.332Z,99187.03
2022-12-31T21:31:23.674Z,99180.56
2022-12-31T21:33:50.806Z,99189.91
2022-12-31T21:36:18.050Z,99183.63
2022-12-31T21:38:45.228Z,99186.97
2022-12-31T21:41:33.498Z,99194.78
2022-12-31T21:44:01.253Z,99199.06
2022-12-31T21:46:29.086Z,99199.06
2022-12-31T21:49:00.444Z,99189.31
2022-12-31T21:51:28.353Z,99200.47
2022-12-31T21:53:55.470Z,99196.75
2022-12-31T21:56:23.419Z,99184.63
2022-12-31T21:59:14.957Z,99191.75
2022-12-31T22:02:00.837Z,99184.88
2022-12-31T22:05:00.878Z,99184.19
2022-12-31T22:07:15.364Z,99173.56
2022-12-31T22:09:42.284Z,99176.06
2022-12-31T22:12:09.452Z,99168.66
2022-12-31T22:14:36.418Z,99177.72
2022-12-31T22:17:03.627Z,99168.25
2022-12-31T22:19:30.574Z,99179.63
2022-12-31T22:21:57.759Z,99167.16
2022-12-31T22:24:24.770Z,99148.75
2022-12-31T22:26:54.267Z,99151.91
2022-12-31T22:29:21.698Z,99158.31
2022-12-31T22:31:49.083Z,99148.50
2022-12-31T22:34:16.006Z,99154.63
2022-12-31T22:36:43.245Z,99152.91
2022-12-31T22:39:43.295Z,99151.88
2022-12-31T22:42:02.870Z,99153.72
2022-12-31T22:44:29.893Z,99145.78
2022-12-31T22:46:57.323Z,99149.34
2022-12-31T22:49:24.201Z,99157.41
2022-12-31T22:51:57.136Z,99156.66
2022-12-31T22:54:26.643Z,99154.31
2022-12-31T22:56:54.029Z,99142.03
2022-12-31T22:59:20.918Z,99100.03
2022-12-31T23:01:48.184Z,99125.66
2022-12-31T23:04:15.170Z,99136.16
2022-12-31T23:06:45.315Z,99136.16
2022-12-31T23:09:33.346Z,99135.38
2022-12-31T23:12:00.734Z,99132.13
2022-12-31T23:14:46.100Z,99139.25
2022-12-31T23:17:35.668Z,99140.19
2022-12-31T23:20:21.927Z,99142.81
2022-12-31T23:23:10.666Z,99136.56
2022-12-31T23:25:44.384Z,99144.53
2022-12-31T23:28:18.341Z,99137.59
2022-12-31T23:30:45.429Z,99146.50
2022-12-31T23:33:16.019Z,99148.41
2022-12-31T23:35:43.265Z,99148.22
2022-12-31T23:38:11.108Z,99139.25
2022-12-31T23:40:38.116Z,99147.16
2022-12-31T23:43:07.533Z,99145.22
2022-12-31T23:45:35.301Z,99130.69
2022-12-31T23:48:03.356Z,99134.16
2022-12-31T23:50:30.216Z,99122.75
2022-12-31T23:52:57.510Z,99123.81
2022-12-31T23:55:24.525Z,99113.84
2022-12-31T23:57:51.809Z,99103.00
